Time;durP1;ratioP1;P1;durP2;ratioP2;P2;SDS_P1;SDS_P2;PMS_P1;PMS_P2;Temp;Humidity;BMP_temperature;BMP_pressure;BME280_temperature;BME280_humidity;BME280_pressure;Samples;Min_cycle;Max_cycle;Signal;HPM_P1;HPM_P2
2022/07/30 00:01:05;;;;;;;5.53;4.37;;;19.60;99.90;;;;;;5004936;28;20180;-71
2022/07/30 00:03:32;;;;;;;6.07;4.70;;;19.50;99.90;;;;;;5004523;28;20338;-68
2022/07/30 00:05:58;;;;;;;4.53;4.13;;;19.40;99.90;;;;;;5003146;28;20693;-68
2022/07/30 00:08:23;;;;;;;5.70;5.20;;;19.40;99.90;;;;;;5002985;28;20494;-69
2022/07/30 00:10:50;;;;;;;5.63;5.13;;;19.30;99.90;;;;;;5003759;28;20586;-70
2022/07/30 00:13:15;;;;;;;6.67;5.60;;;19.20;99.90;;;;;;5003606;28;20180;-68
2022/07/30 00:15:41;;;;;;;5.73;4.87;;;19.20;99.90;;;;;;5004338;28;20411;-69
2022/07/30 00:18:07;;;;;;;5.50;5.10;;;19.30;99.90;;;;;;5003915;28;20614;-70
2022/07/30 00:20:32;;;;;;;7.60;5.57;;;19.30;99.90;;;;;;4993260;28;20191;-70
2022/07/30 00:23:03;;;;;;;6.87;4.77;;;19.30;99.90;;;;;;5003155;28;20238;-69
2022/07/30 00:25:29;;;;;;;6.23;5.07;;;19.40;99.90;;;;;;5003723;28;20180;-69
2022/07/30 00:27:54;;;;;;;6.60;4.50;;;19.40;99.90;;;;;;5003544;28;20454;-66
2022/07/30 00:30:20;;;;;;;6.73;5.50;;;19.50;99.90;;;;;;5003506;28;20184;-67
2022/07/30 00:32:46;;;;;;;7.57;5.30;;;19.30;99.90;;;;;;5003941;28;20175;-68
2022/07/30 00:35:12;;;;;;;7.17;5.60;;;19.30;99.90;;;;;;5003502;28;20686;-70
2022/07/30 00:37:37;;;;;;;6.67;5.30;;;19.30;99.90;;;;;;5002614;28;20196;-70
2022/07/30 00:40:04;;;;;;;5.73;4.73;;;19.30;99.90;;;;;;5003729;28;20184;-68
2022/07/30 00:42:42;;;;;;;5.27;4.87;;;19.30;99.90;;;;;;5003241;28;20425;-68
2022/07/30 00:45:09;;;;;;;7.50;5.20;;;19.40;99.90;;;;;;4986546;28;20882;-70
2022/07/30 00:47:35;;;;;;;6.43;5.83;;;19.30;99.90;;;;;;5003291;28;20418;-68
2022/07/30 00:50:03;;;;;;;5.50;4.93;;;19.30;99.90;;;;;;5003357;28;20850;-72
2022/07/30 00:52:30;;;;;;;5.83;5.20;;;19.30;99.90;;;;;;5003125;28;20497;-68
2022/07/30 00:54:56;;;;;;;6.60;5.87;;;19.30;99.90;;;;;;5003638;28;20413;-67
2022/07/30 00:57:22;;;;;;;5.97;5.40;;;19.40;99.90;;;;;;5003010;28;20770;-67
2022/07/30 00:59:48;;;;;;;5.87;5.33;;;19.30;99.90;;;;;;5003381;28;20912;-69
2022/07/30 01:02:13;;;;;;;6.20;5.80;;;19.30;99.90;;;;;;5003106;28;20184;-66
2022/07/30 01:04:39;;;;;;;7.77;5.60;;;19.20;99.90;;;;;;5003158;28;20274;-67
2022/07/30 01:07:04;;;;;;;5.47;4.97;;;19.20;99.90;;;;;;5001605;28;20196;-71
2022/07/30 01:09:30;;;;;;;5.30;4.87;;;19.30;99.90;;;;;;5003430;28;20175;-69
2022/07/30 01:11:55;;;;;;;6.27;5.63;;;19.30;99.90;;;;;;5003472;28;20819;-68
2022/07/30 01:14:22;;;;;;;8.07;6.40;;;19.40;99.90;;;;;;5003993;28;20187;-68
2022/07/30 01:16:47;;;;;;;5.97;5.30;;;19.40;99.90;;;;;;5003883;28;20195;-68
2022/07/30 01:22:27;;;;;;;7.00;5.87;;;19.40;99.90;;;;;;5009377;28;20180;-69
2022/07/30 01:25:44;;;;;;;7.33;6.10;;;19.40;99.90;;;;;;5002596;28;21050;-68
2022/07/30 01:28:13;;;;;;;6.33;5.83;;;19.50;99.90;;;;;;4984377;28;20582;-73
2022/07/30 01:30:42;;;;;;;6.93;6.33;;;19.30;99.90;;;;;;4976189;28;20428;-70
2022/07/30 01:33:10;;;;;;;6.00;5.50;;;19.10;99.90;;;;;;5001597;28;20430;-68
2022/07/30 01:35:38;;;;;;;6.13;5.37;;;19.10;99.90;;;;;;5016464;28;20422;-69
2022/07/30 01:38:05;;;;;;;5.60;5.20;;;19.10;99.90;;;;;;5016164;28;20460;-68
2022/07/30 01:40:31;;;;;;;7.60;6.50;;;19.20;99.90;;;;;;4998281;28;20415;-71
2022/07/30 01:43:00;;;;;;;6.73;6.03;;;19.20;99.90;;;;;;5011104;28;20450;-68
2022/07/30 01:45:28;;;;;;;7.37;5.50;;;19.10;99.90;;;;;;5010431;28;20410;-71
2022/07/30 01:47:57;;;;;;;7.13;6.13;;;19.00;99.90;;;;;;5006383;28;20581;-68
2022/07/30 01:50:24;;;;;;;6.30;5.70;;;19.00;99.90;;;;;;5005756;28;20941;-67
2022/07/30 01:52:52;;;;;;;6.50;5.83;;;19.00;99.90;;;;;;5005237;28;20441;-68
2022/07/30 01:55:24;;;;;;;8.43;5.87;;;19.10;99.90;;;;;;5005971;28;20447;-73
2022/07/30 01:57:50;;;;;;;6.40;5.90;;;19.20;99.90;;;;;;5005722;28;20954;-68
2022/07/30 02:00:17;;;;;;;6.97;5.90;;;19.20;99.90;;;;;;5005451;28;20465;-70
2022/07/30 02:02:44;;;;;;;6.93;6.27;;;19.20;99.90;;;;;;5005676;28;20398;-68
2022/07/30 02:05:10;;;;;;;7.63;5.90;;;19.00;99.90;;;;;;5005771;28;21005;-68
2022/07/30 02:08:00;;;;;;;7.00;6.43;;;18.90;99.90;;;;;;4996660;28;20537;-68
2022/07/30 02:10:41;;;;;;;6.60;6.00;;;18.80;99.90;;;;;;5005269;28;20175;-70
2022/07/30 02:13:09;;;;;;;6.40;5.80;;;18.90;99.90;;;;;;5005815;28;20525;-68
2022/07/30 02:15:39;;;;;;;8.30;7.60;;;18.90;99.90;;;;;;5005809;28;20545;-69
2022/07/30 02:18:09;;;;;;;6.93;6.23;;;18.80;99.90;;;;;;5005606;28;20434;-67
2022/07/30 02:20:35;;;;;;;7.00;6.50;;;18.80;99.90;;;;;;5005755;28;20407;-72
2022/07/30 02:23:06;;;;;;;7.10;6.60;;;18.70;99.90;;;;;;5004690;28;20463;-71
2022/07/30 02:25:33;;;;;;;7.80;6.53;;;18.60;99.90;;;;;;5005420;28;20406;-69
2022/07/30 02:28:03;;;;;;;6.73;6.23;;;18.50;99.90;;;;;;5004508;28;20450;-72
2022/07/30 02:30:31;;;;;;;8.10;7.30;;;18.60;99.90;;;;;;5005593;28;20538;-73
2022/07/30 02:33:03;;;;;;;7.43;6.63;;;18.50;99.90;;;;;;5005362;28;20886;-71
2022/07/30 02:35:49;;;;;;;6.87;6.30;;;18.50;99.90;;;;;;5004681;28;20410;-68
2022/07/30 02:38:17;;;;;;;5.60;5.20;;;18.50;99.90;;;;;;5004254;28;20439;-67
2022/07/30 02:40:43;;;;;;;7.97;6.47;;;18.50;99.90;;;;;;5005719;28;20439;-67
2022/07/30 02:43:13;;;;;;;6.13;5.73;;;18.60;99.90;;;;;;5004382;28;20505;-68
2022/07/30 02:45:40;;;;;;;6.63;6.10;;;18.60;99.90;;;;;;5004872;28;20807;-69
2022/07/30 02:48:07;;;;;;;7.87;5.57;;;18.60;99.90;;;;;;5004961;28;20457;-67
2022/07/30 02:50:34;;;;;;;6.20;5.70;;;18.50;99.90;;;;;;5004853;28;20465;-68
2022/07/30 02:53:01;;;;;;;6.63;6.03;;;18.40;99.90;;;;;;5004303;28;20419;-70
2022/07/30 02:55:29;;;;;;;5.67;5.27;;;18.40;99.90;;;;;;5004764;28;21383;-71
2022/07/30 02:57:56;;;;;;;7.00;6.40;;;18.50;99.90;;;;;;5004520;28;20457;-67
2022/07/30 03:00:23;;;;;;;6.40;5.80;;;18.40;99.90;;;;;;5004782;28;20513;-71
2022/07/30 03:02:50;;;;;;;6.57;5.97;;;18.40;99.90;;;;;;5004594;28;20426;-70
2022/07/30 03:05:16;;;;;;;5.53;5.13;;;18.30;99.90;;;;;;5004150;28;20445;-67
2022/07/30 03:07:44;;;;;;;6.77;5.97;;;18.30;99.90;;;;;;5003412;28;20486;-67
2022/07/30 03:10:10;;;;;;;6.17;5.77;;;18.20;99.90;;;;;;5004894;28;20418;-70
2022/07/30 03:12:39;;;;;;;7.27;6.53;;;18.10;99.90;;;;;;5004583;28;20462;-67
2022/07/30 03:15:05;;;;;;;7.77;7.17;;;18.10;99.90;;;;;;5004672;28;20422;-67
2022/07/30 03:17:37;;;;;;;5.90;5.40;;;18.00;99.90;;;;;;5004292;28;20672;-67
2022/07/30 03:20:04;;;;;;;6.77;6.17;;;17.90;99.90;;;;;;5004832;28;20418;-67
2022/07/30 03:22:34;;;;;;;9.33;8.60;;;17.80;99.90;;;;;;5004135;28;20452;-67
2022/07/30 03:25:01;;;;;;;6.10;5.60;;;17.80;99.90;;;;;;5004815;28;20436;-71
2022/07/30 03:27:27;;;;;;;7.60;6.00;;;17.80;99.90;;;;;;5004467;28;20550;-67
2022/07/30 03:29:54;;;;;;;7.33;6.03;;;17.80;99.90;;;;;;5004200;28;21204;-68
2022/07/30 03:32:20;;;;;;;6.50;6.00;;;17.90;99.90;;;;;;5004636;28;20410;-71
2022/07/30 03:34:47;;;;;;;6.13;5.47;;;17.90;99.90;;;;;;5004180;28;20502;-68
2022/07/30 03:37:13;;;;;;;5.83;5.13;;;17.80;99.90;;;;;;5003262;28;20446;-72
2022/07/30 03:39:40;;;;;;;5.80;5.40;;;17.80;99.90;;;;;;5004023;28;20417;-67
2022/07/30 03:42:07;;;;;;;6.80;6.23;;;17.80;99.90;;;;;;5003989;28;20464;-67
2022/07/30 03:44:33;;;;;;;6.47;5.90;;;17.80;99.90;;;;;;5003880;28;20528;-72
2022/07/30 03:47:01;;;;;;;6.17;5.60;;;17.80;99.90;;;;;;5003906;28;20437;-67
2022/07/30 03:49:27;;;;;;;6.33;5.93;;;17.70;99.90;;;;;;5002492;28;20412;-67
2022/07/30 03:51:53;;;;;;;6.63;6.03;;;17.70;99.90;;;;;;5003969;28;20412;-73
2022/07/30 03:54:20;;;;;;;6.10;5.50;;;17.70;99.90;;;;;;5003586;28;20418;-67
2022/07/30 03:56:45;;;;;;;6.33;5.60;;;17.70;99.90;;;;;;5003700;28;20817;-67
2022/07/30 03:59:13;;;;;;;6.77;6.27;;;17.70;99.90;;;;;;5004336;28;20904;-68
2022/07/30 04:01:39;;;;;;;6.07;5.10;;;17.70;99.90;;;;;;5004190;28;20179;-68
2022/07/30 04:04:09;;;;;;;6.30;5.67;;;17.60;99.90;;;;;;5002304;28;21182;-68
2022/07/30 04:06:39;;;;;;;6.40;5.90;;;17.60;99.90;;;;;;5003077;28;20441;-70
2022/07/30 04:09:09;;;;;;;6.63;5.97;;;17.60;99.90;;;;;;5002511;28;21317;-67
2022/07/30 04:11:35;;;;;;;7.13;6.43;;;17.60;99.90;;;;;;5003521;28;20590;-69
2022/07/30 04:14:01;;;;;;;6.43;5.73;;;17.60;99.90;;;;;;5003639;28;20995;-67
2022/07/30 04:16:42;;;;;;;6.27;5.67;;;17.60;99.90;;;;;;5003341;28;20516;-67
2022/07/30 04:19:15;;;;;;;7.07;5.87;;;17.50;99.90;;;;;;4985978;28;20174;-72
2022/07/30 04:21:43;;;;;;;5.97;5.47;;;17.60;99.90;;;;;;5003763;28;20418;-66
2022/07/30 04:24:10;;;;;;;5.37;4.90;;;17.50;99.90;;;;;;5002931;28;20824;-67
2022/07/30 04:26:37;;;;;;;6.10;5.60;;;17.50;99.90;;;;;;5003170;28;20438;-68
2022/07/30 04:29:06;;;;;;;6.23;5.70;;;17.50;99.90;;;;;;5003570;28;20943;-68
2022/07/30 04:31:34;;;;;;;6.87;6.17;;;17.50;99.90;;;;;;5003649;28;20500;-67
2022/07/30 04:34:04;;;;;;;6.03;5.53;;;17.60;99.90;;;;;;5003414;28;20413;-67
2022/07/30 04:36:31;;;;;;;7.93;6.30;;;17.70;99.90;;;;;;5003118;28;21108;-69
2022/07/30 04:38:58;;;;;;;9.70;7.23;;;17.60;99.90;;;;;;5002764;28;21457;-67
2022/07/30 04:41:24;;;;;;;5.13;4.63;;;17.60;99.90;;;;;;5003710;28;20425;-68
2022/07/30 04:43:50;;;;;;;9.43;5.63;;;17.60;99.90;;;;;;5003392;28;20820;-71
2022/07/30 04:46:17;;;;;;;10.43;6.20;;;17.70;99.90;;;;;;5003142;28;20611;-68
2022/07/30 04:48:42;;;;;;;8.67;6.17;;;17.60;99.90;;;;;;5003356;28;20414;-67
2022/07/30 04:51:13;;;;;;;6.37;5.73;;;17.50;99.90;;;;;;5002553;28;20572;-67
2022/07/30 04:53:41;;;;;;;6.53;5.93;;;17.50;99.90;;;;;;5002895;28;20240;-67
2022/07/30 04:56:08;;;;;;;6.60;5.40;;;17.70;99.90;;;;;;5002512;28;20436;-67
2022/07/30 04:58:35;;;;;;;5.13;4.63;;;17.80;99.90;;;;;;5003324;28;20556;-67
2022/07/30 05:01:02;;;;;;;6.97;6.40;;;18.00;99.90;;;;;;4988136;28;20429;-68
2022/07/30 05:03:30;;;;;;;6.10;5.53;;;18.00;99.90;;;;;;5006924;28;20814;-66
2022/07/30 05:05:57;;;;;;;6.60;5.43;;;18.00;99.90;;;;;;5006464;28;20830;-69
2022/07/30 05:08:27;;;;;;;6.17;5.57;;;18.00;99.90;;;;;;5005602;28;21018;-67
2022/07/30 05:10:53;;;;;;;6.97;6.37;;;18.10;99.90;;;;;;5007024;28;20402;-69
2022/07/30 05:13:19;;;;;;;9.87;6.43;;;18.10;99.90;;;;;;5006954;28;20708;-73
2022/07/30 05:15:44;;;;;;;5.77;5.27;;;18.20;99.90;;;;;;5006769;28;20417;-67
2022/07/30 05:18:11;;;;;;;6.27;5.67;;;18.20;99.90;;;;;;5006948;28;20326;-68
2022/07/30 05:20:37;;;;;;;7.27;6.70;;;18.30;99.90;;;;;;5005712;28;21198;-71
2022/07/30 05:23:04;;;;;;;7.20;5.80;;;18.30;99.90;;;;;;5006345;28;20485;-70
2022/07/30 05:25:29;;;;;;;6.80;6.20;;;18.40;99.90;;;;;;5006583;28;20413;-68
2022/07/30 05:27:56;;;;;;;6.93;5.90;;;18.40;99.90;;;;;;5006946;28;20445;-67
2022/07/30 05:30:23;;;;;;;6.40;5.80;;;18.60;99.90;;;;;;5006414;28;20186;-67
2022/07/30 05:32:48;;;;;;;6.97;5.90;;;18.70;99.90;;;;;;5006514;28;20422;-70
2022/07/30 05:35:14;;;;;;;7.43;5.90;;;18.80;99.90;;;;;;5006322;28;20419;-67
2022/07/30 05:37:40;;;;;;;5.47;4.83;;;18.90;99.90;;;;;;5005687;28;20569;-67
2022/07/30 05:40:06;;;;;;;6.60;5.67;;;19.00;99.90;;;;;;5006033;28;20262;-67
2022/07/30 05:42:31;;;;;;;8.60;6.30;;;19.20;99.90;;;;;;5006221;28;20195;-68
2022/07/30 05:44:57;;;;;;;5.57;5.10;;;19.30;99.90;;;;;;5006470;28;20452;-68
2022/07/30 05:47:22;;;;;;;5.90;5.30;;;19.40;99.90;;;;;;5005544;28;20196;-71
2022/07/30 05:49:48;;;;;;;6.20;5.70;;;19.60;99.90;;;;;;5006419;28;20259;-68
2022/07/30 05:52:14;;;;;;;6.83;5.53;;;19.70;99.90;;;;;;5005899;28;20207;-69
2022/07/30 05:54:39;;;;;;;7.37;5.87;;;19.70;99.90;;;;;;5005818;28;20561;-66
2022/07/30 05:57:05;;;;;;;5.37;4.87;;;19.80;99.90;;;;;;4988298;28;20224;-69
2022/07/30 05:59:30;;;;;;;5.77;5.27;;;19.90;99.90;;;;;;5006767;28;20191;-67
2022/07/30 06:01:56;;;;;;;6.00;5.40;;;20.00;99.90;;;;;;5005979;28;20271;-67
2022/07/30 06:04:21;;;;;;;5.63;5.10;;;20.10;99.90;;;;;;5006102;28;20270;-68
2022/07/30 06:06:47;;;;;;;5.47;4.97;;;20.20;99.90;;;;;;5005785;28;20238;-70
2022/07/30 06:09:13;;;;;;;6.87;6.17;;;20.30;99.90;;;;;;5004253;28;20649;-70
2022/07/30 06:11:38;;;;;;;8.83;5.33;;;20.40;99.90;;;;;;5030372;22;20227;-71
2022/07/30 06:14:04;;;;;;;5.80;5.30;;;20.40;99.90;;;;;;5015980;28;20758;-69
2022/07/30 06:16:30;;;;;;;6.67;5.97;;;20.60;99.90;;;;;;5005780;28;20669;-69
2022/07/30 06:18:55;;;;;;;7.07;6.40;;;20.80;99.90;;;;;;5006000;28;20187;-70
2022/07/30 06:21:21;;;;;;;5.90;5.37;;;20.80;99.90;;;;;;5005701;28;20664;-70
2022/07/30 06:23:47;;;;;;;9.10;5.70;;;20.90;99.90;;;;;;5005405;28;20461;-68
2022/07/30 06:26:13;;;;;;;6.17;5.07;;;20.90;99.90;;;;;;5005749;28;20259;-70
2022/07/30 06:28:39;;;;;;;5.53;5.13;;;21.20;99.90;;;;;;5005490;28;20344;-69
2022/07/30 06:31:05;;;;;;;4.97;4.47;;;21.10;99.90;;;;;;5005433;28;20564;-72
2022/07/30 06:33:31;;;;;;;5.73;5.20;;;21.40;99.90;;;;;;5005550;28;20183;-68
2022/07/30 06:35:57;;;;;;;6.73;5.50;;;21.30;99.90;;;;;;5005402;28;20469;-69
2022/07/30 06:38:22;;;;;;;5.30;4.80;;;21.30;99.90;;;;;;5004941;28;20233;-69
2022/07/30 06:40:48;;;;;;;7.37;5.20;;;21.40;99.90;;;;;;4971619;28;20439;-68
2022/07/30 06:43:14;;;;;;;5.63;5.10;;;21.50;99.90;;;;;;5005369;28;20230;-70
2022/07/30 06:45:39;;;;;;;6.63;4.93;;;21.60;99.90;;;;;;5005227;28;20191;-67
2022/07/30 06:48:05;;;;;;;6.70;5.60;;;21.60;99.90;;;;;;5005441;28;20697;-68
2022/07/30 06:50:31;;;;;;;5.90;5.30;;;21.70;99.90;;;;;;5005169;28;20176;-68
2022/07/30 06:52:56;;;;;;;5.57;5.17;;;21.80;99.90;;;;;;5004637;28;20199;-68
2022/07/30 06:55:22;;;;;;;5.73;5.20;;;21.80;99.90;;;;;;5004295;28;20206;-68
2022/07/30 06:57:48;;;;;;;7.90;7.10;;;21.80;99.90;;;;;;5005217;28;20176;-68
2022/07/30 07:00:14;;;;;;;7.23;6.57;;;21.90;99.90;;;;;;5005026;28;20418;-71
2022/07/30 07:02:41;;;;;;;10.30;5.90;;;21.90;99.90;;;;;;5004956;28;20219;-70
2022/07/30 07:05:07;;;;;;;7.20;5.90;;;21.90;99.90;;;;;;5005070;28;20492;-68
2022/07/30 07:07:34;;;;;;;7.40;6.70;;;22.10;99.90;;;;;;5004433;28;20466;-70
2022/07/30 07:09:59;;;;;;;7.87;6.97;;;22.10;99.90;;;;;;5003745;28;20184;-69
2022/07/30 07:12:25;;;;;;;7.57;5.70;;;22.00;99.90;;;;;;5004457;28;20512;-69
2022/07/30 07:14:50;;;;;;;6.17;5.57;;;22.10;99.90;;;;;;5004686;28;20175;-71
2022/07/30 07:17:16;;;;;;;7.20;5.87;;;22.20;99.90;;;;;;5004572;28;20507;-68
2022/07/30 07:19:42;;;;;;;10.97;6.40;;;22.20;99.90;;;;;;5004650;28;20797;-71
2022/07/30 07:22:08;;;;;;;6.33;5.73;;;22.20;99.90;;;;;;5004698;28;21363;-67
2022/07/30 07:24:33;;;;;;;7.30;5.67;;;22.20;99.90;;;;;;5003629;28;20907;-68
2022/07/30 07:26:59;;;;;;;6.30;5.40;;;22.20;99.90;;;;;;5005016;28;20656;-68
2022/07/30 07:29:25;;;;;;;6.20;5.60;;;22.40;99.90;;;;;;5004434;28;20180;-68
2022/07/30 07:31:50;;;;;;;7.20;6.10;;;22.40;99.90;;;;;;5004455;28;20200;-69
2022/07/30 07:34:16;;;;;;;6.20;5.67;;;22.40;99.90;;;;;;5004164;28;20534;-69
2022/07/30 07:36:41;;;;;;;5.93;5.43;;;22.50;99.90;;;;;;5004264;28;20187;-68
2022/07/30 07:39:08;;;;;;;6.43;5.80;;;22.60;99.90;;;;;;5003096;28;20499;-67
2022/07/30 07:41:37;;;;;;;6.23;5.53;;;22.60;99.90;;;;;;5004539;28;20208;-70
2022/07/30 07:44:04;;;;;;;6.30;5.03;;;22.70;99.90;;;;;;5004376;28;20466;-71
2022/07/30 07:46:30;;;;;;;7.37;5.30;;;22.80;99.90;;;;;;5004003;28;20429;-69
2022/07/30 07:48:56;;;;;;;5.40;5.00;;;22.90;99.90;;;;;;5003956;28;20427;-67
2022/07/30 07:51:22;;;;;;;6.63;4.70;;;23.00;99.90;;;;;;5003792;28;20417;-69
2022/07/30 07:53:47;;;;;;;4.97;3.93;;;22.80;99.90;;;;;;5003473;28;20180;-67
2022/07/30 07:56:13;;;;;;;4.97;4.47;;;22.90;99.90;;;;;;5004096;28;20679;-69
2022/07/30 07:58:39;;;;;;;6.67;5.13;;;22.90;99.90;;;;;;5003816;28;20184;-67
2022/07/30 08:01:05;;;;;;;6.60;4.53;;;23.00;99.90;;;;;;5003879;28;20183;-70
2022/07/30 08:03:31;;;;;;;4.20;3.80;;;23.10;99.90;;;;;;5004015;28;20454;-67
2022/07/30 08:05:56;;;;;;;9.20;4.93;;;23.10;99.90;;;;;;5003843;28;20176;-69
2022/07/30 08:08:22;;;;;;;6.57;4.63;;;23.30;99.90;;;;;;5003121;28;20641;-69
2022/07/30 08:10:48;;;;;;;8.10;5.57;;;23.30;99.90;;;;;;5004579;28;20277;-69
2022/07/30 08:13:14;;;;;;;7.27;4.77;;;23.30;99.90;;;;;;4986689;28;20219;-70
2022/07/30 08:15:40;;;;;;;5.40;4.80;;;23.30;99.90;;;;;;5004134;28;20176;-67
2022/07/30 08:18:06;;;;;;;5.30;4.60;;;23.40;99.60;;;;;;5002811;28;20823;-68
2022/07/30 08:20:32;;;;;;;4.67;3.80;;;23.40;99.90;;;;;;5003691;28;20180;-68
2022/07/30 08:22:58;;;;;;;5.07;3.93;;;23.50;99.20;;;;;;5003306;28;20833;-69
2022/07/30 08:25:24;;;;;;;5.50;4.40;;;23.60;98.80;;;;;;5002687;28;20427;-68
2022/07/30 08:27:50;;;;;;;5.13;4.73;;;23.80;98.90;;;;;;5003608;28;20276;-67
2022/07/30 08:30:15;;;;;;;8.10;4.97;;;23.90;98.20;;;;;;5002590;28;20190;-69
2022/07/30 08:32:41;;;;;;;5.80;5.20;;;23.90;98.10;;;;;;5003944;28;20208;-71
2022/07/30 08:35:07;;;;;;;9.27;5.17;;;23.70;98.30;;;;;;5005200;28;20258;-68
2022/07/30 08:37:33;;;;;;;4.47;4.17;;;23.60;98.20;;;;;;5008001;28;20183;-66
2022/07/30 08:39:58;;;;;;;4.80;4.00;;;23.60;98.60;;;;;;5007791;28;20184;-68
2022/07/30 08:42:25;;;;;;;5.40;4.20;;;23.70;97.50;;;;;;5007276;28;20203;-71
2022/07/30 08:44:53;;;;;;;4.37;3.97;;;23.90;97.50;;;;;;5006068;28;20699;-68
2022/07/30 08:47:22;;;;;;;6.73;4.07;;;23.90;97.10;;;;;;5007342;28;21034;-69
2022/07/30 08:49:48;;;;;;;5.80;3.90;;;24.00;96.90;;;;;;5007421;28;20472;-71
2022/07/30 08:52:14;;;;;;;4.53;3.97;;;24.00;96.50;;;;;;5007233;28;20526;-68
2022/07/30 08:54:40;;;;;;;4.27;3.97;;;24.30;96.60;;;;;;5007692;28;20502;-66
2022/07/30 08:57:06;;;;;;;4.03;3.73;;;24.40;96.20;;;;;;5007034;28;20653;-69
2022/07/30 08:59:32;;;;;;;8.00;4.30;;;24.20;95.50;;;;;;5007137;28;20187;-69
2022/07/30 09:01:58;;;;;;;7.40;4.07;;;24.30;96.40;;;;;;5007024;28;20814;-71
2022/07/30 09:04:24;;;;;;;4.37;3.97;;;24.40;95.70;;;;;;5006790;28;20553;-69
2022/07/30 09:06:49;;;;;;;4.93;3.57;;;24.60;95.70;;;;;;5006694;28;20244;-69
2022/07/30 09:09:15;;;;;;;5.40;4.10;;;24.70;95.00;;;;;;5006155;28;20197;-68
2022/07/30 09:11:41;;;;;;;7.93;4.00;;;24.70;94.50;;;;;;5007008;28;20218;-69
2022/07/30 09:14:08;;;;;;;5.90;4.40;;;24.80;94.70;;;;;;5006817;28;20446;-68
2022/07/30 09:16:34;;;;;;;4.77;4.03;;;24.70;94.70;;;;;;5006993;28;20230;-69
2022/07/30 09:19:16;;;;;;;4.50;3.87;;;24.50;94.50;;;;;;5007908;28;20419;-70
2022/07/30 09:21:53;;;;;;;4.20;3.80;;;24.60;95.60;;;;;;5007242;28;20210;-69
2022/07/30 09:24:19;;;;;;;7.03;4.17;;;24.70;95.40;;;;;;5006667;28;20446;-69
2022/07/30 09:26:52;;;;;;;4.00;3.53;;;24.80;94.30;;;;;;5007274;28;20411;-69
2022/07/30 09:29:21;;;;;;;4.47;3.70;;;25.10;93.50;;;;;;5007266;28;20193;-68
2022/07/30 09:32:06;;;;;;;3.87;3.57;;;25.40;93.70;;;;;;5006440;28;20745;-70
2022/07/30 09:34:34;;;;;;;3.87;3.57;;;25.40;93.60;;;;;;5006949;28;20415;-70
2022/07/30 09:37:07;;;;;;;4.70;3.67;;;25.60;93.50;;;;;;5007073;28;20421;-70
2022/07/30 09:39:35;;;;;;;4.40;4.00;;;25.40;92.90;;;;;;5007211;28;20830;-70
2022/07/30 09:42:03;;;;;;;3.93;3.53;;;24.90;93.30;;;;;;5006841;28;20434;-69
2022/07/30 09:44:30;;;;;;;3.70;3.33;;;25.00;93.40;;;;;;5006754;28;20461;-70
2022/07/30 09:46:56;;;;;;;4.13;3.50;;;25.00;92.70;;;;;;5006099;28;20414;-66
2022/07/30 09:49:25;;;;;;;6.00;4.20;;;25.00;92.90;;;;;;5006371;28;20846;-68
2022/07/30 09:51:51;;;;;;;3.80;3.50;;;25.10;92.30;;;;;;5006701;28;20473;-67
2022/07/30 09:54:17;;;;;;;4.17;3.43;;;25.40;92.10;;;;;;5006092;28;20418;-65
2022/07/30 09:56:45;;;;;;;6.07;3.57;;;25.30;91.90;;;;;;5006612;28;20414;-67
2022/07/30 09:59:30;;;;;;;6.20;3.53;;;24.90;93.00;;;;;;5006387;28;20201;-70
2022/07/30 10:01:57;;;;;;;4.20;3.90;;;24.80;93.10;;;;;;5005848;28;20435;-70
2022/07/30 10:04:27;;;;;;;3.93;3.63;;;25.00;92.70;;;;;;5005874;28;20975;-68
2022/07/30 10:06:53;;;;;;;3.30;3.00;;;25.50;92.50;;;;;;5006391;28;20415;-71
2022/07/30 10:09:33;;;;;;;5.00;3.00;;;25.70;92.00;;;;;;5005848;28;20465;-71
2022/07/30 10:12:01;;;;;;;3.20;2.77;;;25.90;90.30;;;;;;5005761;28;20473;-68
2022/07/30 10:14:35;;;;;;;3.70;3.40;;;26.10;90.90;;;;;;5005596;28;20411;-67
2022/07/30 10:17:01;;;;;;;5.40;3.43;;;25.80;90.50;;;;;;5004661;28;20417;-69
2022/07/30 10:19:27;;;;;;;4.77;2.60;;;25.90;91.70;;;;;;5005269;28;20473;-67
2022/07/30 10:21:56;;;;;;;8.40;3.70;;;26.00;90.00;;;;;;5005725;28;20207;-69
2022/07/30 10:24:23;;;;;;;3.40;3.00;;;25.90;87.80;;;;;;5004365;28;20199;-67
2022/07/30 10:26:50;;;;;;;3.27;2.87;;;26.00;90.00;;;;;;5005436;28;20411;-69
2022/07/30 10:29:17;;;;;;;3.60;2.70;;;26.30;89.90;;;;;;5005796;28;20431;-67
2022/07/30 10:31:44;;;;;;;3.60;3.30;;;26.50;86.40;;;;;;5004276;28;20442;-68
2022/07/30 10:34:12;;;;;;;4.90;3.20;;;26.70;84.80;;;;;;5005273;28;20473;-70
2022/07/30 10:36:41;;;;;;;6.67;3.47;;;26.40;85.70;;;;;;5005072;28;20411;-70
2022/07/30 10:39:11;;;;;;;3.33;3.03;;;26.10;86.30;;;;;;5005171;28;20465;-71
2022/07/30 10:42:16;;;;;;;3.20;3.00;;;26.30;86.60;;;;;;5004258;28;20469;-68
2022/07/30 10:45:09;;;;;;;3.50;3.10;;;26.40;85.40;;;;;;5005200;28;20447;-71
2022/07/30 10:47:37;;;;;;;5.07;2.97;;;26.30;85.80;;;;;;5005195;28;20399;-68
2022/07/30 10:50:26;;;;;;;3.30;3.00;;;26.30;86.30;;;;;;5005186;28;20883;-70
2022/07/30 10:52:53;;;;;;;3.00;2.70;;;26.20;87.10;;;;;;5004690;28;20442;-68
2022/07/30 10:55:29;;;;;;;4.23;2.80;;;26.40;85.60;;;;;;5005293;28;20411;-69
2022/07/30 10:57:59;;;;;;;3.93;2.50;;;26.70;83.90;;;;;;5004072;28;20439;-69
2022/07/30 11:00:26;;;;;;;4.07;3.03;;;27.00;83.60;;;;;;5005128;28;20415;-69
2022/07/30 11:03:25;;;;;;;2.87;2.57;;;27.20;83.50;;;;;;5004837;28;20470;-67
2022/07/30 11:06:10;;;;;;;7.30;2.50;;;27.70;80.70;;;;;;5004082;28;20715;-68
2022/07/30 11:08:40;;;;;;;3.20;2.67;;;27.70;78.90;;;;;;5004778;28;20411;-70
2022/07/30 11:11:21;;;;;;;3.70;2.87;;;27.00;80.70;;;;;;5004715;28;20453;-71
2022/07/30 11:13:53;;;;;;;3.13;2.40;;;26.70;82.00;;;;;;5005097;28;20434;-69
2022/07/30 11:16:21;;;;;;;3.80;2.50;;;26.80;81.50;;;;;;5004592;28;20414;-71
2022/07/30 11:19:23;;;;;;;3.27;2.53;;;26.90;80.80;;;;;;5004677;28;20463;-69
2022/07/30 11:22:25;;;;;;;4.53;2.33;;;27.10;79.70;;;;;;5004028;28;20437;-68
2022/07/30 11:24:52;;;;;;;3.93;2.93;;;27.40;77.80;;;;;;5003124;28;20457;-71
2022/07/30 11:27:33;;;;;;;6.80;3.40;;;27.90;77.80;;;;;;5004499;28;20449;-69
2022/07/30 11:29:58;;;;;;;2.87;2.60;;;28.70;75.10;;;;;;5004537;28;20423;-69
2022/07/30 11:32:25;;;;;;;2.87;2.30;;;28.60;73.60;;;;;;5004500;28;20637;-68
2022/07/30 11:34:51;;;;;;;3.27;2.87;;;27.70;75.80;;;;;;5004556;28;20176;-69
2022/07/30 11:37:17;;;;;;;3.60;2.37;;;27.40;76.50;;;;;;5004258;28;20414;-72
2022/07/30 11:39:55;;;;;;;2.40;2.20;;;28.40;73.60;;;;;;5003554;28;20928;-68
2022/07/30 11:42:27;;;;;;;2.60;2.40;;;29.70;71.80;;;;;;5004526;28;20997;-69
2022/07/30 11:45:15;;;;;;;3.13;2.37;;;31.20;67.90;;;;;;5004248;28;20459;-72
2022/07/30 11:47:53;;;;;;;2.67;2.30;;;32.10;63.60;;;;;;5004033;28;20410;-70
2022/07/30 11:50:26;;;;;;;2.97;2.50;;;31.40;62.90;;;;;;5004171;28;20411;-69
2022/07/30 11:53:00;;;;;;;3.90;2.40;;;30.80;63.50;;;;;;5004217;28;20427;-70
2022/07/30 11:55:33;;;;;;;3.60;2.57;;;30.20;64.40;;;;;;5002933;28;20837;-69
2022/07/30 11:58:01;;;;;;;5.00;2.67;;;30.30;66.10;;;;;;5003474;28;20462;-70
2022/07/30 12:00:38;;;;;;;4.07;2.40;;;30.60;64.30;;;;;;5003857;28;20795;-69
2022/07/30 12:03:12;;;;;;;2.67;2.10;;;32.20;61.10;;;;;;5003707;28;20493;-72
2022/07/30 12:05:39;;;;;;;4.17;2.47;;;32.80;58.50;;;;;;5003822;28;20418;-72
2022/07/30 12:08:05;;;;;;;2.50;2.30;;;32.10;59.30;;;;;;5003974;28;20818;-66
2022/07/30 12:10:31;;;;;;;2.70;2.30;;;30.40;62.70;;;;;;5002245;28;20919;-71
2022/07/30 12:13:14;;;;;;;2.10;1.90;;;30.60;62.00;;;;;;5003265;28;20461;-68
2022/07/30 12:15:44;;;;;;;3.10;2.70;;;31.70;60.00;;;;;;5003685;28;20171;-69
2022/07/30 12:18:12;;;;;;;3.60;2.40;;;31.90;59.60;;;;;;5003952;28;20403;-68
2022/07/30 12:20:38;;;;;;;3.27;2.30;;;31.10;58.40;;;;;;5003755;28;20426;-68
2022/07/30 12:23:11;;;;;;;2.47;2.03;;;29.40;62.00;;;;;;5003193;28;20469;-67
2022/07/30 12:25:41;;;;;;;2.77;2.33;;;29.10;62.20;;;;;;5002839;28;20819;-68
2022/07/30 12:28:09;;;;;;;1.73;1.63;;;30.10;61.40;;;;;;5003600;28;20427;-69
2022/07/30 12:30:38;;;;;;;2.27;2.03;;;31.50;58.80;;;;;;5003234;28;20419;-69
2022/07/30 12:33:05;;;;;;;3.63;2.13;;;31.60;56.80;;;;;;5003411;28;20435;-67
2022/07/30 12:35:48;;;;;;;1.77;1.57;;;32.00;56.40;;;;;;5003482;28;20413;-69
2022/07/30 12:38:14;;;;;;;2.60;2.00;;;33.20;54.00;;;;;;5003813;28;20434;-67
2022/07/30 12:40:59;;;;;;;3.37;2.07;;;34.50;53.10;;;;;;5002486;28;20977;-68
2022/07/30 12:43:50;;;;;;;3.50;1.93;;;35.50;49.10;;;;;;5002710;28;20470;-70
2022/07/30 12:46:21;;;;;;;3.10;2.00;;;33.80;51.80;;;;;;5003575;28;20413;-69
2022/07/30 12:49:01;;;;;;;2.53;2.00;;;31.80;54.10;;;;;;5003449;28;20410;-69
2022/07/30 12:51:32;;;;;;;2.73;2.00;;;31.40;55.00;;;;;;5003747;28;20434;-69
2022/07/30 12:54:00;;;;;;;2.33;1.70;;;32.40;53.70;;;;;;5003760;28;20407;-67
2022/07/30 12:56:30;;;;;;;3.37;2.17;;;32.40;53.10;;;;;;5003399;28;20498;-68